sensor_id;sensor_type;location;lat;lon;timestamp;P1;durP1;ratioP1;P2;durP2;ratioP2
77518;SDS011;66629;47.346;19.038;2023-02-28T00:00:17;17.67;;;10.13;;
77518;SDS011;66629;47.346;19.038;2023-02-28T00:02:44;16.88;;;10.80;;
77518;SDS011;66629;47.346;19.038;2023-02-28T00:05:11;17.75;;;10.35;;
77518;SDS011;66629;47.346;19.038;2023-02-28T00:07:38;17.67;;;10.43;;
77518;SDS011;66629;47.346;19.038;2023-02-28T00:10:05;16.35;;;9.82;;
77518;SDS011;66629;47.346;19.038;2023-02-28T00:12:32;15.52;;;9.73;;
77518;SDS011;66629;47.346;19.038;2023-02-28T00:14:59;16.95;;;9.25;;
77518;SDS011;66629;47.346;19.038;2023-02-28T00:17:24;16.20;;;8.45;;
77518;SDS011;66629;47.346;19.038;2023-02-28T00:19:50;15.35;;;8.65;;
77518;SDS011;66629;47.346;19.038;2023-02-28T00:22:20;16.13;;;9.68;;
77518;SDS011;66629;47.346;19.038;2023-02-28T00:24:46;17.35;;;9.13;;
77518;SDS011;66629;47.346;19.038;2023-02-28T00:27:12;13.55;;;9.43;;
77518;SDS011;66629;47.346;19.038;2023-02-28T00:29:38;13.20;;;9.30;;
77518;SDS011;66629;47.346;19.038;2023-02-28T00:32:04;15.93;;;9.50;;
77518;SDS011;66629;47.346;19.038;2023-02-28T00:34:30;17.73;;;8.90;;
77518;SDS011;66629;47.346;19.038;2023-02-28T00:36:55;16.38;;;9.60;;
77518;SDS011;66629;47.346;19.038;2023-02-28T00:39:21;15.55;;;9.18;;
77518;SDS011;66629;47.346;19.038;2023-02-28T00:41:47;13.13;;;7.93;;
77518;SDS011;66629;47.346;19.038;2023-02-28T00:44:12;16.27;;;8.88;;
77518;SDS011;66629;47.346;19.038;2023-02-28T00:46:38;13.65;;;8.38;;
77518;SDS011;66629;47.346;19.038;2023-02-28T00:49:03;12.02;;;8.05;;
77518;SDS011;66629;47.346;19.038;2023-02-28T00:51:29;13.45;;;7.80;;
77518;SDS011;66629;47.346;19.038;2023-02-28T00:53:54;12.40;;;7.97;;
77518;SDS011;66629;47.346;19.038;2023-02-28T00:56:20;12.95;;;8.60;;
77518;SDS011;66629;47.346;19.038;2023-02-28T00:58:45;15.25;;;8.60;;
77518;SDS011;66629;47.346;19.038;2023-02-28T01:01:11;15.38;;;7.75;;
77518;SDS011;66629;47.346;19.038;2023-02-28T01:03:36;14.23;;;8.70;;
77518;SDS011;66629;47.346;19.038;2023-02-28T01:06:03;13.50;;;8.13;;
77518;SDS011;66629;47.346;19.038;2023-02-28T01:08:29;11.93;;;7.93;;
77518;SDS011;66629;47.346;19.038;2023-02-28T01:10:54;15.40;;;8.27;;
77518;SDS011;66629;47.346;19.038;2023-02-28T01:13:20;12.60;;;8.18;;
77518;SDS011;66629;47.346;19.038;2023-02-28T01:15:49;14.73;;;7.90;;
77518;SDS011;66629;47.346;19.038;2023-02-28T01:18:16;15.07;;;8.30;;
77518;SDS011;66629;47.346;19.038;2023-02-28T01:20:42;13.38;;;7.60;;
77518;SDS011;66629;47.346;19.038;2023-02-28T01:23:08;16.95;;;9.60;;
77518;SDS011;66629;47.346;19.038;2023-02-28T01:25:34;15.15;;;9.13;;
77518;SDS011;66629;47.346;19.038;2023-02-28T01:28:00;16.90;;;9.05;;
77518;SDS011;66629;47.346;19.038;2023-02-28T01:30:26;14.70;;;9.45;;
77518;SDS011;66629;47.346;19.038;2023-02-28T01:32:51;13.40;;;8.52;;
77518;SDS011;66629;47.346;19.038;2023-02-28T01:35:18;15.20;;;8.98;;
77518;SDS011;66629;47.346;19.038;2023-02-28T01:37:44;15.63;;;9.50;;
77518;SDS011;66629;47.346;19.038;2023-02-28T01:40:10;13.63;;;7.85;;
77518;SDS011;66629;47.346;19.038;2023-02-28T01:42:37;19.85;;;8.88;;
77518;SDS011;66629;47.346;19.038;2023-02-28T01:45:19;15.35;;;8.80;;
77518;SDS011;66629;47.346;19.038;2023-02-28T01:47:48;13.43;;;8.15;;
77518;SDS011;66629;47.346;19.038;2023-02-28T01:50:18;11.35;;;7.95;;
77518;SDS011;66629;47.346;19.038;2023-02-28T01:52:46;13.25;;;7.80;;
77518;SDS011;66629;47.346;19.038;2023-02-28T01:55:13;15.10;;;8.02;;
77518;SDS011;66629;47.346;19.038;2023-02-28T01:57:46;13.63;;;8.55;;
77518;SDS011;66629;47.346;19.038;2023-02-28T02:00:17;13.20;;;7.65;;
77518;SDS011;66629;47.346;19.038;2023-02-28T02:02:46;13.52;;;8.43;;
77518;SDS011;66629;47.346;19.038;2023-02-28T02:05:18;17.33;;;9.38;;
77518;SDS011;66629;47.346;19.038;2023-02-28T02:07:52;14.23;;;8.40;;
77518;SDS011;66629;47.346;19.038;2023-02-28T02:10:29;17.27;;;8.80;;
77518;SDS011;66629;47.346;19.038;2023-02-28T02:18:31;16.50;;;10.10;;
77518;SDS011;66629;47.346;19.038;2023-02-28T02:29:11;18.38;;;9.77;;
77518;SDS011;66629;47.346;19.038;2023-02-28T02:32:02;21.80;;;9.63;;
77518;SDS011;66629;47.346;19.038;2023-02-28T02:42:48;13.77;;;9.32;;
77518;SDS011;66629;47.346;19.038;2023-02-28T02:48:06;15.00;;;9.60;;
77518;SDS011;66629;47.346;19.038;2023-02-28T02:50:38;15.02;;;9.52;;
77518;SDS011;66629;47.346;19.038;2023-02-28T02:53:07;17.27;;;10.02;;
77518;SDS011;66629;47.346;19.038;2023-02-28T02:55:37;16.48;;;9.93;;
77518;SDS011;66629;47.346;19.038;2023-02-28T02:58:07;17.50;;;9.45;;
77518;SDS011;66629;47.346;19.038;2023-02-28T03:00:40;16.63;;;9.30;;
77518;SDS011;66629;47.346;19.038;2023-02-28T03:03:08;15.18;;;9.13;;
77518;SDS011;66629;47.346;19.038;2023-02-28T03:05:39;15.82;;;9.65;;
77518;SDS011;66629;47.346;19.038;2023-02-28T03:08:08;15.32;;;9.48;;
77518;SDS011;66629;47.346;19.038;2023-02-28T03:10:35;16.02;;;10.38;;
77518;SDS011;66629;47.346;19.038;2023-02-28T03:27:06;15.52;;;10.27;;
77518;SDS011;66629;47.346;19.038;2023-02-28T03:30:10;15.25;;;9.65;;
77518;SDS011;66629;47.346;19.038;2023-02-28T03:32:35;15.43;;;9.02;;
77518;SDS011;66629;47.346;19.038;2023-02-28T03:35:09;14.98;;;9.82;;
77518;SDS011;66629;47.346;19.038;2023-02-28T03:37:47;18.48;;;9.50;;
77518;SDS011;66629;47.346;19.038;2023-02-28T03:40:19;15.93;;;10.57;;
77518;SDS011;66629;47.346;19.038;2023-02-28T03:42:48;15.20;;;9.60;;
77518;SDS011;66629;47.346;19.038;2023-02-28T03:45:24;15.60;;;10.52;;
77518;SDS011;66629;47.346;19.038;2023-02-28T03:48:03;18.60;;;10.75;;
77518;SDS011;66629;47.346;19.038;2023-02-28T03:50:53;15.77;;;9.77;;
77518;SDS011;66629;47.346;19.038;2023-02-28T03:55:49;18.73;;;10.82;;
77518;SDS011;66629;47.346;19.038;2023-02-28T03:58:32;16.05;;;10.02;;
77518;SDS011;66629;47.346;19.038;2023-02-28T04:01:26;17.27;;;10.68;;
77518;SDS011;66629;47.346;19.038;2023-02-28T04:03:56;16.95;;;10.65;;
77518;SDS011;66629;47.346;19.038;2023-02-28T04:06:22;16.63;;;9.60;;
77518;SDS011;66629;47.346;19.038;2023-02-28T04:08:49;17.60;;;10.85;;
77518;SDS011;66629;47.346;19.038;2023-02-28T04:11:19;17.88;;;10.68;;
77518;SDS011;66629;47.346;19.038;2023-02-28T04:13:50;16.55;;;9.85;;
77518;SDS011;66629;47.346;19.038;2023-02-28T04:16:16;17.75;;;10.05;;
77518;SDS011;66629;47.346;19.038;2023-02-28T04:18:41;16.95;;;10.48;;
77518;SDS011;66629;47.346;19.038;2023-02-28T04:21:11;15.52;;;10.00;;
77518;SDS011;66629;47.346;19.038;2023-02-28T04:23:37;15.40;;;9.38;;
77518;SDS011;66629;47.346;19.038;2023-02-28T04:26:02;15.77;;;10.30;;
77518;SDS011;66629;47.346;19.038;2023-02-28T04:28:29;17.15;;;10.35;;
77518;SDS011;66629;47.346;19.038;2023-02-28T04:30:58;15.30;;;11.18;;
77518;SDS011;66629;47.346;19.038;2023-02-28T04:33:25;19.60;;;10.50;;
77518;SDS011;66629;47.346;19.038;2023-02-28T04:36:06;18.65;;;11.73;;
77518;SDS011;66629;47.346;19.038;2023-02-28T04:38:36;15.98;;;10.73;;
77518;SDS011;66629;47.346;19.038;2023-02-28T04:41:03;19.52;;;10.88;;
77518;SDS011;66629;47.346;19.038;2023-02-28T04:43:29;17.65;;;10.80;;
77518;SDS011;66629;47.346;19.038;2023-02-28T04:45:56;19.15;;;10.70;;
77518;SDS011;66629;47.346;19.038;2023-02-28T04:48:26;15.52;;;10.27;;
77518;SDS011;66629;47.346;19.038;2023-02-28T04:50:53;19.35;;;10.50;;
77518;SDS011;66629;47.346;19.038;2023-02-28T04:53:18;17.95;;;10.48;;
77518;SDS011;66629;47.346;19.038;2023-02-28T04:55:44;17.05;;;9.55;;
77518;SDS011;66629;47.346;19.038;2023-02-28T04:58:10;19.50;;;11.15;;
77518;SDS011;66629;47.346;19.038;2023-02-28T05:00:36;16.45;;;10.55;;
77518;SDS011;66629;47.346;19.038;2023-02-28T05:03:02;14.90;;;8.65;;
77518;SDS011;66629;47.346;19.038;2023-02-28T05:05:27;14.88;;;9.82;;
77518;SDS011;66629;47.346;19.038;2023-02-28T05:07:53;12.43;;;8.20;;
77518;SDS011;66629;47.346;19.038;2023-02-28T05:10:20;18.85;;;8.75;;
77518;SDS011;66629;47.346;19.038;2023-02-28T05:12:46;16.15;;;9.10;;
77518;SDS011;66629;47.346;19.038;2023-02-28T05:15:13;14.80;;;8.55;;
77518;SDS011;66629;47.346;19.038;2023-02-28T05:17:40;16.67;;;8.98;;
77518;SDS011;66629;47.346;19.038;2023-02-28T05:20:06;14.50;;;8.57;;
77518;SDS011;66629;47.346;19.038;2023-02-28T05:22:33;21.88;;;8.93;;
77518;SDS011;66629;47.346;19.038;2023-02-28T05:24:59;16.45;;;9.80;;
77518;SDS011;66629;47.346;19.038;2023-02-28T05:27:24;14.80;;;8.82;;
77518;SDS011;66629;47.346;19.038;2023-02-28T05:29:50;15.43;;;8.30;;
77518;SDS011;66629;47.346;19.038;2023-02-28T05:32:15;14.70;;;8.95;;
77518;SDS011;66629;47.346;19.038;2023-02-28T05:34:41;14.60;;;8.63;;
77518;SDS011;66629;47.346;19.038;2023-02-28T05:37:10;12.80;;;8.23;;
77518;SDS011;66629;47.346;19.038;2023-02-28T05:39:37;13.25;;;7.80;;
77518;SDS011;66629;47.346;19.038;2023-02-28T05:42:03;14.15;;;8.38;;
77518;SDS011;66629;47.346;19.038;2023-02-28T05:44:29;14.18;;;7.50;;
77518;SDS011;66629;47.346;19.038;2023-02-28T05:46:54;12.05;;;6.60;;
77518;SDS011;66629;47.346;19.038;2023-02-28T05:49:20;12.38;;;6.93;;
77518;SDS011;66629;47.346;19.038;2023-02-28T05:51:45;11.02;;;6.32;;
77518;SDS011;66629;47.346;19.038;2023-02-28T05:54:11;13.93;;;7.35;;
77518;SDS011;66629;47.346;19.038;2023-02-28T05:56:36;11.70;;;7.18;;
77518;SDS011;66629;47.346;19.038;2023-02-28T05:59:04;14.57;;;7.82;;
77518;SDS011;66629;47.346;19.038;2023-02-28T06:01:35;13.05;;;7.28;;
77518;SDS011;66629;47.346;19.038;2023-02-28T06:06:31;14.60;;;7.10;;
77518;SDS011;66629;47.346;19.038;2023-02-28T06:08:59;12.82;;;8.05;;
77518;SDS011;66629;47.346;19.038;2023-02-28T06:11:25;10.35;;;6.78;;
77518;SDS011;66629;47.346;19.038;2023-02-28T06:13:58;10.85;;;6.70;;
77518;SDS011;66629;47.346;19.038;2023-02-28T06:16:25;11.50;;;7.30;;
77518;SDS011;66629;47.346;19.038;2023-02-28T06:18:51;10.30;;;6.68;;
77518;SDS011;66629;47.346;19.038;2023-02-28T06:21:17;11.85;;;7.68;;
77518;SDS011;66629;47.346;19.038;2023-02-28T06:23:43;16.85;;;8.60;;
77518;SDS011;66629;47.346;19.038;2023-02-28T06:26:09;16.33;;;8.85;;
77518;SDS011;66629;47.346;19.038;2023-02-28T06:28:35;11.05;;;7.10;;
77518;SDS011;66629;47.346;19.038;2023-02-28T06:31:05;13.90;;;7.38;;
77518;SDS011;66629;47.346;19.038;2023-02-28T06:33:33;14.23;;;8.05;;
77518;SDS011;66629;47.346;19.038;2023-02-28T06:35:59;18.27;;;7.47;;
77518;SDS011;66629;47.346;19.038;2023-02-28T06:38:24;11.23;;;6.53;;
77518;SDS011;66629;47.346;19.038;2023-02-28T06:40:56;15.32;;;8.55;;
77518;SDS011;66629;47.346;19.038;2023-02-28T06:43:23;14.63;;;8.43;;
77518;SDS011;66629;47.346;19.038;2023-02-28T06:45:50;18.10;;;8.05;;
77518;SDS011;66629;47.346;19.038;2023-02-28T06:48:19;17.02;;;8.43;;
77518;SDS011;66629;47.346;19.038;2023-02-28T06:50:44;14.45;;;8.52;;
77518;SDS011;66629;47.346;19.038;2023-02-28T06:53:09;18.33;;;9.93;;
77518;SDS011;66629;47.346;19.038;2023-02-28T06:55:37;14.52;;;8.07;;
77518;SDS011;66629;47.346;19.038;2023-02-28T06:58:03;15.35;;;8.65;;
77518;SDS011;66629;47.346;19.038;2023-02-28T07:00:28;14.80;;;7.72;;
77518;SDS011;66629;47.346;19.038;2023-02-28T07:02:53;14.85;;;7.20;;
77518;SDS011;66629;47.346;19.038;2023-02-28T07:05:20;10.98;;;6.50;;
77518;SDS011;66629;47.346;19.038;2023-02-28T07:07:45;14.98;;;6.75;;
77518;SDS011;66629;47.346;19.038;2023-02-28T07:10:12;10.52;;;5.80;;
77518;SDS011;66629;47.346;19.038;2023-02-28T07:12:39;12.57;;;6.00;;
77518;SDS011;66629;47.346;19.038;2023-02-28T07:15:05;11.95;;;6.75;;
77518;SDS011;66629;47.346;19.038;2023-02-28T07:17:31;12.75;;;6.95;;
77518;SDS011;66629;47.346;19.038;2023-02-28T07:19:56;15.25;;;6.70;;
77518;SDS011;66629;47.346;19.038;2023-02-28T07:22:22;14.57;;;6.72;;
77518;SDS011;66629;47.346;19.038;2023-02-28T07:24:47;12.75;;;7.22;;
77518;SDS011;66629;47.346;19.038;2023-02-28T07:27:13;15.52;;;6.82;;
77518;SDS011;66629;47.346;19.038;2023-02-28T07:29:48;16.17;;;8.55;;
77518;SDS011;66629;47.346;19.038;2023-02-28T07:32:14;14.75;;;7.25;;
77518;SDS011;66629;47.346;19.038;2023-02-28T07:34:40;12.70;;;5.85;;
77518;SDS011;66629;47.346;19.038;2023-02-28T07:37:05;13.65;;;6.45;;
77518;SDS011;66629;47.346;19.038;2023-02-28T07:39:30;12.82;;;6.80;;
77518;SDS011;66629;47.346;19.038;2023-02-28T07:41:56;15.05;;;8.10;;
77518;SDS011;66629;47.346;19.038;2023-02-28T07:44:21;9.32;;;5.20;;
77518;SDS011;66629;47.346;19.038;2023-02-28T07:46:47;10.38;;;5.82;;
77518;SDS011;66629;47.346;19.038;2023-02-28T07:49:12;11.35;;;6.95;;
77518;SDS011;66629;47.346;19.038;2023-02-28T07:51:38;13.48;;;6.65;;
77518;SDS011;66629;47.346;19.038;2023-02-28T07:54:03;6.75;;;4.82;;
77518;SDS011;66629;47.346;19.038;2023-02-28T07:56:29;10.52;;;6.35;;
77518;SDS011;66629;47.346;19.038;2023-02-28T07:58:54;14.38;;;7.32;;
77518;SDS011;66629;47.346;19.038;2023-02-28T08:01:20;12.45;;;6.32;;
77518;SDS011;66629;47.346;19.038;2023-02-28T08:03:45;13.02;;;6.65;;
77518;SDS011;66629;47.346;19.038;2023-02-28T08:06:18;8.68;;;5.85;;
77518;SDS011;66629;47.346;19.038;2023-02-28T08:08:45;9.25;;;5.88;;
77518;SDS011;66629;47.346;19.038;2023-02-28T08:11:11;11.75;;;5.90;;
77518;SDS011;66629;47.346;19.038;2023-02-28T08:13:37;12.10;;;5.20;;
77518;SDS011;66629;47.346;19.038;2023-02-28T08:16:02;10.38;;;5.97;;
77518;SDS011;66629;47.346;19.038;2023-02-28T08:18:28;10.80;;;6.10;;
77518;SDS011;66629;47.346;19.038;2023-02-28T08:20:53;8.52;;;5.45;;
77518;SDS011;66629;47.346;19.038;2023-02-28T08:23:18;9.30;;;6.10;;
77518;SDS011;66629;47.346;19.038;2023-02-28T08:25:44;13.50;;;6.68;;
77518;SDS011;66629;47.346;19.038;2023-02-28T08:28:09;11.75;;;5.57;;
77518;SDS011;66629;47.346;19.038;2023-02-28T08:30:35;10.35;;;6.68;;
77518;SDS011;66629;47.346;19.038;2023-02-28T08:33:00;10.90;;;5.75;;
77518;SDS011;66629;47.346;19.038;2023-02-28T08:35:26;23.88;;;7.07;;
77518;SDS011;66629;47.346;19.038;2023-02-28T08:37:52;8.57;;;5.95;;
77518;SDS011;66629;47.346;19.038;2023-02-28T08:40:17;8.32;;;5.50;;
77518;SDS011;66629;47.346;19.038;2023-02-28T08:42:44;9.55;;;6.25;;
77518;SDS011;66629;47.346;19.038;2023-02-28T08:45:10;8.98;;;5.72;;
77518;SDS011;66629;47.346;19.038;2023-02-28T08:47:36;9.80;;;6.30;;
77518;SDS011;66629;47.346;19.038;2023-02-28T08:50:02;10.13;;;6.32;;
77518;SDS011;66629;47.346;19.038;2023-02-28T08:52:28;10.88;;;6.45;;
77518;SDS011;66629;47.346;19.038;2023-02-28T08:54:54;11.93;;;6.82;;
77518;SDS011;66629;47.346;19.038;2023-02-28T08:57:19;13.55;;;7.32;;
77518;SDS011;66629;47.346;19.038;2023-02-28T08:59:45;12.85;;;7.28;;
77518;SDS011;66629;47.346;19.038;2023-02-28T09:02:13;11.45;;;5.32;;
77518;SDS011;66629;47.346;19.038;2023-02-28T09:04:39;11.15;;;6.80;;
77518;SDS011;66629;47.346;19.038;2023-02-28T09:07:05;11.13;;;7.88;;
77518;SDS011;66629;47.346;19.038;2023-02-28T09:09:31;9.00;;;6.30;;
77518;SDS011;66629;47.346;19.038;2023-02-28T09:11:56;12.32;;;7.40;;
77518;SDS011;66629;47.346;19.038;2023-02-28T09:14:22;14.38;;;8.15;;
77518;SDS011;66629;47.346;19.038;2023-02-28T09:16:48;9.90;;;5.97;;
77518;SDS011;66629;47.346;19.038;2023-02-28T09:19:13;12.93;;;6.40;;
77518;SDS011;66629;47.346;19.038;2023-02-28T09:21:39;13.93;;;6.97;;
77518;SDS011;66629;47.346;19.038;2023-02-28T09:24:05;10.65;;;5.85;;
77518;SDS011;66629;47.346;19.038;2023-02-28T09:26:30;12.32;;;6.65;;
77518;SDS011;66629;47.346;19.038;2023-02-28T09:28:56;15.55;;;6.90;;
77518;SDS011;66629;47.346;19.038;2023-02-28T09:31:24;11.15;;;7.07;;
77518;SDS011;66629;47.346;19.038;2023-02-28T09:33:52;10.65;;;6.60;;
77518;SDS011;66629;47.346;19.038;2023-02-28T09:36:19;12.20;;;7.75;;
77518;SDS011;66629;47.346;19.038;2023-02-28T09:38:46;11.35;;;7.78;;
77518;SDS011;66629;47.346;19.038;2023-02-28T09:41:27;11.63;;;6.88;;
77518;SDS011;66629;47.346;19.038;2023-02-28T09:44:02;12.77;;;7.55;;
77518;SDS011;66629;47.346;19.038;2023-02-28T09:46:33;9.75;;;6.57;;
77518;SDS011;66629;47.346;19.038;2023-02-28T09:49:05;9.45;;;6.45;;
77518;SDS011;66629;47.346;19.038;2023-02-28T09:54:16;18.35;;;6.50;;
77518;SDS011;66629;47.346;19.038;2023-02-28T09:56:51;9.27;;;5.50;;
77518;SDS011;66629;47.346;19.038;2023-02-28T10:05:00;11.15;;;6.57;;
77518;SDS011;66629;47.346;19.038;2023-02-28T10:10:24;11.27;;;6.90;;
77518;SDS011;66629;47.346;19.038;2023-02-28T10:12:53;12.60;;;6.88;;
77518;SDS011;66629;47.346;19.038;2023-02-28T10:15:23;9.85;;;6.30;;
77518;SDS011;66629;47.346;19.038;2023-02-28T10:17:53;14.13;;;7.18;;
77518;SDS011;66629;47.346;19.038;2023-02-28T10:20:21;12.27;;;8.88;;
77518;SDS011;66629;47.346;19.038;2023-02-28T10:25:34;10.88;;;7.63;;
77518;SDS011;66629;47.346;19.038;2023-02-28T10:30:39;12.35;;;7.22;;
77518;SDS011;66629;47.346;19.038;2023-02-28T10:33:21;10.93;;;6.65;;
77518;SDS011;66629;47.346;19.038;2023-02-28T10:35:47;10.77;;;7.35;;
77518;SDS011;66629;47.346;19.038;2023-02-28T10:38:24;8.82;;;5.93;;
77518;SDS011;66629;47.346;19.038;2023-02-28T10:41:31;26.58;;;11.18;;
77518;SDS011;66629;47.346;19.038;2023-02-28T10:44:12;21.05;;;11.77;;
77518;SDS011;66629;47.346;19.038;2023-02-28T10:46:40;11.40;;;7.00;;
77518;SDS011;66629;47.346;19.038;2023-02-28T10:49:12;16.42;;;8.55;;
77518;SDS011;66629;47.346;19.038;2023-02-28T10:51:41;10.95;;;6.38;;
77518;SDS011;66629;47.346;19.038;2023-02-28T10:54:14;9.95;;;6.50;;
77518;SDS011;66629;47.346;19.038;2023-02-28T10:56:42;13.30;;;7.47;;
77518;SDS011;66629;47.346;19.038;2023-02-28T11:01:40;13.20;;;6.78;;
77518;SDS011;66629;47.346;19.038;2023-02-28T11:06:58;10.30;;;6.72;;
77518;SDS011;66629;47.346;19.038;2023-02-28T11:09:35;10.68;;;5.95;;
77518;SDS011;66629;47.346;19.038;2023-02-28T11:12:04;10.07;;;6.30;;
77518;SDS011;66629;47.346;19.038;2023-02-28T11:14:40;15.75;;;9.18;;
77518;SDS011;66629;47.346;19.038;2023-02-28T11:17:23;9.90;;;6.72;;
77518;SDS011;66629;47.346;19.038;2023-02-28T11:19:51;9.52;;;6.22;;
77518;SDS011;66629;47.346;19.038;2023-02-28T11:22:21;10.80;;;7.05;;
77518;SDS011;66629;47.346;19.038;2023-02-28T11:24:51;10.00;;;6.78;;
77518;SDS011;66629;47.346;19.038;2023-02-28T11:29:56;9.63;;;6.68;;
77518;SDS011;66629;47.346;19.038;2023-02-28T11:32:23;9.13;;;6.15;;
77518;SDS011;66629;47.346;19.038;2023-02-28T11:37:39;11.10;;;6.10;;
77518;SDS011;66629;47.346;19.038;2023-02-28T11:43:13;10.65;;;7.00;;
77518;SDS011;66629;47.346;19.038;2023-02-28T11:51:24;8.73;;;5.93;;
77518;SDS011;66629;47.346;19.038;2023-02-28T11:53:59;9.00;;;6.05;;
77518;SDS011;66629;47.346;19.038;2023-02-28T12:24:39;9.90;;;5.32;;
77518;SDS011;66629;47.346;19.038;2023-02-28T12:27:11;8.65;;;5.45;;
77518;SDS011;66629;47.346;19.038;2023-02-28T12:32:18;7.45;;;5.22;;
77518;SDS011;66629;47.346;19.038;2023-02-28T12:34:53;8.65;;;6.22;;
77518;SDS011;66629;47.346;19.038;2023-02-28T12:37:28;16.50;;;8.40;;
77518;SDS011;66629;47.346;19.038;2023-02-28T12:40:06;27.25;;;10.32;;
77518;SDS011;66629;47.346;19.038;2023-02-28T12:42:40;9.65;;;5.00;;
77518;SDS011;66629;47.346;19.038;2023-02-28T12:48:10;10.23;;;5.32;;
77518;SDS011;66629;47.346;19.038;2023-02-28T12:50:40;10.02;;;5.32;;
77518;SDS011;66629;47.346;19.038;2023-02-28T12:53:06;9.35;;;5.55;;
77518;SDS011;66629;47.346;19.038;2023-02-28T12:58:36;9.98;;;5.55;;
77518;SDS011;66629;47.346;19.038;2023-02-28T13:06:32;9.65;;;4.97;;
77518;SDS011;66629;47.346;19.038;2023-02-28T13:09:17;7.60;;;5.32;;
77518;SDS011;66629;47.346;19.038;2023-02-28T13:11:45;11.15;;;6.90;;
77518;SDS011;66629;47.346;19.038;2023-02-28T13:14:20;8.25;;;5.57;;
77518;SDS011;66629;47.346;19.038;2023-02-28T13:17:01;11.53;;;6.00;;
77518;SDS011;66629;47.346;19.038;2023-02-28T13:25:50;9.00;;;6.35;;
77518;SDS011;66629;47.346;19.038;2023-02-28T13:27:50;10.60;;;6.15;;
77518;SDS011;66629;47.346;19.038;2023-02-28T13:33:27;9.73;;;5.95;;
77518;SDS011;66629;47.346;19.038;2023-02-28T13:38:45;9.73;;;6.18;;
77518;SDS011;66629;47.346;19.038;2023-02-28T13:44:09;8.17;;;5.87;;
77518;SDS011;66629;47.346;19.038;2023-02-28T13:47:21;9.48;;;6.18;;
77518;SDS011;66629;47.346;19.038;2023-02-28T13:52:11;9.43;;;6.68;;
77518;SDS011;66629;47.346;19.038;2023-02-28T13:55:02;9.95;;;6.85;;
77518;SDS011;66629;47.346;19.038;2023-02-28T14:05:40;9.90;;;5.70;;
77518;SDS011;66629;47.346;19.038;2023-02-28T14:08:08;9.10;;;6.28;;
77518;SDS011;66629;47.346;19.038;2023-02-28T14:10:49;9.77;;;6.43;;
77518;SDS011;66629;47.346;19.038;2023-02-28T14:16:02;12.82;;;7.00;;
77518;SDS011;66629;47.346;19.038;2023-02-28T14:18:36;12.27;;;6.43;;
77518;SDS011;66629;47.346;19.038;2023-02-28T14:37:23;7.82;;;5.55;;
77518;SDS011;66629;47.346;19.038;2023-02-28T14:39:53;13.55;;;8.02;;
77518;SDS011;66629;47.346;19.038;2023-02-28T14:42:28;8.25;;;5.30;;
77518;SDS011;66629;47.346;19.038;2023-02-28T14:45:03;9.05;;;6.38;;
77518;SDS011;66629;47.346;19.038;2023-02-28T14:47:32;11.38;;;7.40;;
77518;SDS011;66629;47.346;19.038;2023-02-28T14:50:00;13.88;;;8.10;;
77518;SDS011;66629;47.346;19.038;2023-02-28T14:52:29;13.07;;;6.65;;
77518;SDS011;66629;47.346;19.038;2023-02-28T14:54:58;11.82;;;6.78;;
77518;SDS011;66629;47.346;19.038;2023-02-28T14:57:27;10.48;;;7.72;;
77518;SDS011;66629;47.346;19.038;2023-02-28T15:02:30;22.50;;;10.90;;
77518;SDS011;66629;47.346;19.038;2023-02-28T15:04:59;20.60;;;9.60;;
77518;SDS011;66629;47.346;19.038;2023-02-28T15:07:46;14.00;;;7.43;;
77518;SDS011;66629;47.346;19.038;2023-02-28T15:12:39;11.13;;;6.20;;
77518;SDS011;66629;47.346;19.038;2023-02-28T15:15:06;11.27;;;7.40;;
77518;SDS011;66629;47.346;19.038;2023-02-28T15:17:38;10.80;;;5.95;;
77518;SDS011;66629;47.346;19.038;2023-02-28T15:20:04;11.48;;;7.35;;
77518;SDS011;66629;47.346;19.038;2023-02-28T15:22:34;9.32;;;5.90;;
77518;SDS011;66629;47.346;19.038;2023-02-28T15:25:02;8.82;;;4.95;;
77518;SDS011;66629;47.346;19.038;2023-02-28T15:27:31;10.90;;;6.55;;
77518;SDS011;66629;47.346;19.038;2023-02-28T15:29:59;10.45;;;6.90;;
77518;SDS011;66629;47.346;19.038;2023-02-28T15:34:55;14.13;;;7.90;;
77518;SDS011;66629;47.346;19.038;2023-02-28T15:42:57;14.65;;;10.18;;
77518;SDS011;66629;47.346;19.038;2023-02-28T15:45:28;11.43;;;7.95;;
77518;SDS011;66629;47.346;19.038;2023-02-28T15:48:02;10.93;;;6.03;;
77518;SDS011;66629;47.346;19.038;2023-02-28T15:50:28;13.40;;;7.25;;
77518;SDS011;66629;47.346;19.038;2023-02-28T15:52:54;12.23;;;8.07;;
77518;SDS011;66629;47.346;19.038;2023-02-28T15:55:24;14.35;;;7.07;;
77518;SDS011;66629;47.346;19.038;2023-02-28T15:57:56;14.82;;;9.75;;
77518;SDS011;66629;47.346;19.038;2023-02-28T16:00:26;13.55;;;8.52;;
77518;SDS011;66629;47.346;19.038;2023-02-28T16:02:52;13.93;;;7.97;;
77518;SDS011;66629;47.346;19.038;2023-02-28T16:05:19;14.80;;;8.27;;
77518;SDS011;66629;47.346;19.038;2023-02-28T16:07:53;15.25;;;9.02;;
77518;SDS011;66629;47.346;19.038;2023-02-28T16:10:20;11.80;;;8.27;;
77518;SDS011;66629;47.346;19.038;2023-02-28T16:12:50;11.73;;;7.72;;
77518;SDS011;66629;47.346;19.038;2023-02-28T16:17:53;12.07;;;8.10;;
77518;SDS011;66629;47.346;19.038;2023-02-28T16:20:21;15.35;;;8.80;;
77518;SDS011;66629;47.346;19.038;2023-02-28T16:22:48;12.77;;;8.57;;
77518;SDS011;66629;47.346;19.038;2023-02-28T16:25:14;10.35;;;7.70;;
77518;SDS011;66629;47.346;19.038;2023-02-28T16:27:47;11.43;;;7.53;;
77518;SDS011;66629;47.346;19.038;2023-02-28T16:30:17;11.02;;;6.82;;
77518;SDS011;66629;47.346;19.038;2023-02-28T16:32:47;11.80;;;7.55;;
77518;SDS011;66629;47.346;19.038;2023-02-28T16:35:14;12.02;;;7.22;;
77518;SDS011;66629;47.346;19.038;2023-02-28T16:37:40;14.15;;;9.65;;
77518;SDS011;66629;47.346;19.038;2023-02-28T16:40:06;14.55;;;8.68;;
77518;SDS011;66629;47.346;19.038;2023-02-28T16:42:38;16.63;;;9.60;;
77518;SDS011;66629;47.346;19.038;2023-02-28T16:45:04;18.88;;;11.40;;
77518;SDS011;66629;47.346;19.038;2023-02-28T16:47:30;17.17;;;10.68;;
77518;SDS011;66629;47.346;19.038;2023-02-28T16:49:56;16.30;;;9.48;;
77518;SDS011;66629;47.346;19.038;2023-02-28T16:52:22;13.23;;;9.20;;
77518;SDS011;66629;47.346;19.038;2023-02-28T16:54:47;14.07;;;9.05;;
77518;SDS011;66629;47.346;19.038;2023-02-28T16:57:22;14.88;;;9.90;;
77518;SDS011;66629;47.346;19.038;2023-02-28T16:59:48;16.13;;;9.20;;
77518;SDS011;66629;47.346;19.038;2023-02-28T17:02:18;18.63;;;11.00;;
77518;SDS011;66629;47.346;19.038;2023-02-28T17:04:44;19.13;;;10.43;;
77518;SDS011;66629;47.346;19.038;2023-02-28T17:07:11;12.85;;;8.88;;
77518;SDS011;66629;47.346;19.038;2023-02-28T17:09:38;13.77;;;9.65;;
77518;SDS011;66629;47.346;19.038;2023-02-28T17:12:03;14.60;;;9.43;;
77518;SDS011;66629;47.346;19.038;2023-02-28T17:14:29;20.75;;;10.48;;
77518;SDS011;66629;47.346;19.038;2023-02-28T17:16:55;18.13;;;11.18;;
77518;SDS011;66629;47.346;19.038;2023-02-28T17:19:21;15.73;;;8.50;;
77518;SDS011;66629;47.346;19.038;2023-02-28T17:21:46;14.48;;;9.60;;
77518;SDS011;66629;47.346;19.038;2023-02-28T17:24:12;14.10;;;10.05;;
77518;SDS011;66629;47.346;19.038;2023-02-28T17:26:38;16.40;;;10.65;;
77518;SDS011;66629;47.346;19.038;2023-02-28T17:29:09;14.73;;;10.10;;
77518;SDS011;66629;47.346;19.038;2023-02-28T17:31:39;13.15;;;8.65;;